Terminal Aerodrome Forecast
Issued by NWS

Home | Current Version | Previous Version | Text Only | Print | Product List | Glossary On
Versions: 1 2 3 4 5 6 7 8 9 10 11 12 13 14 15
000
FTUS46 KSTO 240500
TAFRDD
TAF
KRDD 240538Z 2406/2506 VRB04KT P6SM VCSH OVC070
     FM241000 VRB04KT P6SM SCT025 OVC100
      TEMPO 2410/2414 4SM BR BKN025
     FM241800 15010KT P6SM SCT250=

USA.gov is the U.S. government's official web portal to all federal, state and local government web resources and services.